| time (UTC) | temp F | wind direction | speed knots | gust knots | rain 1hr in | rain 24hr in | rain mn in | humidity % | barometer mb |
| 20260507100413 | 47 | 309 | 1.7 | 3.5 | 0.00 | 0.08 | 0.08 | 92 | 12.3 |
| 20260507095413 | 47 | 39 | 0.9 | 4.3 | 0.00 | 0.08 | 0.08 | 91 | 12.2 |
| 20260507081412 | 46 | 288 | 3.5 | 6.1 | 0.00 | 0.08 | 0.08 | 91 | 11.1 |
| 20260507073412 | 45 | 279 | 3.5 | 6.1 | 0.00 | 0.08 | 0.08 | 91 | 10.6 |
| 20260507065411 | 45 | 321 | 2.6 | 4.3 | 0.00 | 0.08 | 0.08 | 91 | 10.3 |
| 20260507051411 | 45 | 336 | 2.6 | 4.3 | 0.02 | 0.08 | 0.08 | 91 | 9.3 |
| 20260507020409 | 45 | 311 | 2.6 | 4.3 | 0.02 | 0.06 | 0.06 | 91 | 7.9 |
| 20260507004409 | 45 | 294 | 0.9 | 2.6 | 0.01 | 0.03 | 0.03 | 91 | 7.6 |
| 20260507000414 | 45 | 262 | 0.9 | 1.7 | 0.01 | 0.02 | 0.02 | 91 | 7.4 |
| 20260506213414 | 46 | 313 | 2.6 | 5.2 | 0.00 | 0.61 | 0.61 | 90 | 7.0 |
| 20260506201412 | 46 | 317 | 2.6 | 4.3 | 0.00 | 0.61 | 0.61 | 90 | 6.6 |
| 20260506200412 | 46 | 321 | 2.6 | 4.3 | 0.01 | 0.61 | 0.61 | 90 | 6.5 |
| 20260506192412 | 46 | 311 | 1.7 | 3.5 | 0.01 | 0.61 | 0.61 | 90 | 6.1 |
| 20260506185411 | 46 | 308 | 2.6 | 5.2 | 0.00 | 0.61 | 0.61 | 89 | 5.8 |
| 20260506164411 | 47 | 322 | 2.6 | 5.2 | 0.00 | 0.61 | 0.61 | 90 | 4.9 |
| 20260506145410 | 48 | 336 | 0.9 | 5.2 | 0.00 | 0.61 | 0.61 | 90 | 4.7 |
| 20260506140409 | 48 | 37 | 0.9 | 3.5 | 0.00 | 0.61 | 0.61 | 90 | 4.3 |
| 20260506122414 | 49 | 11 | 0.9 | 3.5 | 0.00 | 0.60 | 0.60 | 91 | 4.0 |
| 20260506113413 | 50 | 310 | 2.6 | 6.1 | 0.00 | 0.60 | 0.60 | 92 | 3.7 |
| 20260506112413 | 50 | 319 | 0.9 | 3.5 | 0.00 | 0.60 | 0.60 | 92 | 3.6 |
| 20260506105413 | 50 | 314 | 2.6 | 4.3 | 0.00 | 0.60 | 0.60 | 92 | 3.6 |